Time;durP1;ratioP1;P1;durP2;ratioP2;P2;SDS_P1;SDS_P2;PMS_P1;PMS_P2;Temp;Humidity;BMP_temperature;BMP_pressure;BME280_temperature;BME280_humidity;BME280_pressure;Samples;Min_cycle;Max_cycle;Signal;HPM_P1;HPM_P2
2024/02/22 00:01:38;;;;;;;0.10;0.10;;;;;;;12.44;80.92;99884.75;5115729;28;20028;-79
2024/02/22 00:04:04;;;;;;;0.10;0.10;;;;;;;12.39;80.59;99896.50;5115638;28;20032;-79
2024/02/22 00:06:32;;;;;;;0.10;0.10;;;;;;;12.43;81.24;99879.50;5116699;28;20020;-79
2024/02/22 00:08:59;;;;;;;0.10;0.10;;;;;;;12.39;80.86;99883.22;5113857;28;20072;-79
2024/02/22 00:11:25;;;;;;;0.30;0.25;;;;;;;12.40;81.40;99882.28;5108601;28;20059;-79
2024/02/22 00:13:51;;;;;;;0.10;0.10;;;;;;;12.40;80.73;99890.25;5115226;28;20053;-79
2024/02/22 00:16:17;;;;;;;0.20;0.20;;;;;;;12.45;80.96;99875.84;5115093;28;20055;-79
2024/02/22 00:18:43;;;;;;;1.08;1.08;;;;;;;12.49;80.66;99879.25;5111201;28;20028;-79
2024/02/22 00:21:10;;;;;;;0.20;0.20;;;;;;;12.48;81.03;99876.66;5117358;28;20072;-78
2024/02/22 00:23:36;;;;;;;0.45;0.45;;;;;;;12.48;80.77;99871.34;5116629;27;20446;-79
2024/02/22 00:26:02;;;;;;;0.20;0.20;;;;;;;12.49;80.90;99871.28;5115688;28;20034;-79
2024/02/22 00:28:28;;;;;;;0.20;0.20;;;;;;;12.56;80.53;99871.84;5113943;28;20020;-79
2024/02/22 00:30:55;;;;;;;0.20;0.20;;;;;;;12.51;81.02;99864.09;5115715;27;20023;-80
2024/02/22 00:33:21;;;;;;;0.15;0.15;;;;;;;12.53;81.01;99864.88;5118542;28;20491;-79
2024/02/22 00:35:47;;;;;;;0.10;0.10;;;;;;;12.55;80.53;99864.84;5117016;28;20044;-79
2024/02/22 00:38:13;;;;;;;0.30;0.30;;;;;;;12.58;80.75;99867.34;5112179;28;20030;-79
2024/02/22 00:40:39;;;;;;;0.10;0.10;;;;;;;12.61;80.85;99862.75;5114585;28;20398;-79
2024/02/22 00:43:05;;;;;;;0.10;0.10;;;;;;;12.65;80.21;99857.28;5115976;28;20032;-79
2024/02/22 00:45:34;;;;;;;0.10;0.10;;;;;;;12.60;80.72;99850.41;5113486;28;20486;-75
2024/02/22 00:48:01;;;;;;;0.40;0.40;;;;;;;12.61;80.98;99849.47;5114146;28;20486;-76
2024/02/22 00:50:27;;;;;;;0.10;0.10;;;;;;;12.65;80.38;99839.56;5111242;28;20042;-76
2024/02/22 00:52:55;;;;;;;1.40;1.35;;;;;;;12.67;80.89;99844.81;5109353;27;20125;-75
2024/02/22 00:55:22;;;;;;;0.20;0.20;;;;;;;12.63;80.75;99841.44;5111739;28;20479;-76
2024/02/22 00:57:48;;;;;;;0.15;0.15;;;;;;;12.62;80.84;99837.03;5113767;28;20116;-77
2024/02/22 01:00:14;;;;;;;0.10;0.10;;;;;;;12.55;81.34;99838.28;5112600;27;20063;-77
2024/02/22 01:02:41;;;;;;;0.15;0.15;;;;;;;12.66;81.12;99840.44;5110379;28;20028;-77
2024/02/22 01:05:08;;;;;;;0.10;0.10;;;;;;;12.69;80.75;99827.88;5106495;27;20376;-76
2024/02/22 01:07:34;;;;;;;0.10;0.10;;;;;;;12.67;81.21;99828.88;5107914;28;20467;-76
2024/02/22 01:10:01;;;;;;;0.82;0.82;;;;;;;12.65;81.10;99833.38;5110777;28;20502;-76
2024/02/22 01:12:27;;;;;;;0.50;0.50;;;;;;;12.67;80.65;99828.88;5112486;28;20027;-76
2024/02/22 01:14:53;;;;;;;0.20;0.20;;;;;;;12.72;80.88;99818.88;5110101;28;20020;-77
2024/02/22 01:17:19;;;;;;;0.10;0.10;;;;;;;12.68;81.08;99827.94;5110442;28;20034;-77
2024/02/22 01:19:46;;;;;;;0.10;0.10;;;;;;;12.71;80.39;99818.03;5110290;28;20548;-78
2024/02/22 01:22:12;;;;;;;0.10;0.10;;;;;;;12.62;81.30;99815.78;5110189;28;20058;-78
2024/02/22 01:24:39;;;;;;;0.10;0.10;;;;;;;12.65;80.94;99822.75;5112339;28;20024;-79
2024/02/22 01:27:07;;;;;;;0.10;0.10;;;;;;;12.71;80.79;99809.19;5112557;28;20034;-77
2024/02/22 01:29:34;;;;;;;0.20;0.20;;;;;;;12.65;80.74;99812.13;5113494;28;20059;-80
2024/02/22 01:32:00;;;;;;;0.10;0.10;;;;;;;12.75;80.58;99808.97;5109681;28;20024;-77
2024/02/22 01:34:26;;;;;;;0.38;0.38;;;;;;;12.77;80.30;99811.56;5113153;28;20340;-80
2024/02/22 01:36:53;;;;;;;2.83;2.63;;;;;;;12.64;80.76;99810.41;5113803;27;20099;-79
2024/02/22 01:39:19;;;;;;;0.20;0.20;;;;;;;12.71;80.88;99801.22;5115003;28;20024;-79
2024/02/22 01:41:45;;;;;;;0.10;0.10;;;;;;;12.60;81.10;99801.72;5114559;28;20051;-79
2024/02/22 01:44:12;;;;;;;0.10;0.10;;;;;;;12.72;80.69;99794.97;5110957;28;20023;-80
2024/02/22 01:46:38;;;;;;;1.38;1.35;;;;;;;12.71;80.60;99795.91;5112677;28;20024;-79
2024/02/22 01:49:06;;;;;;;0.10;0.10;;;;;;;12.73;80.52;99792.22;5112351;28;20027;-79
2024/02/22 01:51:33;;;;;;;0.10;0.10;;;;;;;12.67;80.72;99789.84;5111771;28;20044;-80
2024/02/22 01:54:00;;;;;;;0.52;0.52;;;;;;;12.68;80.83;99786.28;5113015;28;20023;-79
2024/02/22 01:56:28;;;;;;;0.20;0.20;;;;;;;12.70;80.57;99773.78;5113676;28;20039;-80
2024/02/22 01:58:56;;;;;;;0.35;0.35;;;;;;;12.74;80.34;99774.50;5111312;28;20418;-78
2024/02/22 02:01:23;;;;;;;0.17;0.17;;;;;;;12.68;80.26;99780.09;5113785;28;20024;-78
2024/02/22 02:03:50;;;;;;;0.22;0.22;;;;;;;12.74;79.69;99774.50;5111597;28;20035;-77
2024/02/22 02:06:17;;;;;;;3.83;1.55;;;;;;;12.73;80.16;99765.66;5111288;28;20028;-77
2024/02/22 02:08:44;;;;;;;0.10;0.10;;;;;;;12.75;79.60;99768.25;5111840;28;20494;-77
2024/02/22 02:11:10;;;;;;;1.65;1.65;;;;;;;12.75;79.77;99768.25;5109321;28;20507;-76
2024/02/22 02:13:36;;;;;;;0.80;0.80;;;;;;;12.78;79.57;99765.44;5114685;28;20095;-79
2024/02/22 02:16:03;;;;;;;0.10;0.10;;;;;;;12.78;79.37;99758.34;5111166;27;20016;-79
2024/02/22 02:18:29;;;;;;;19.85;3.60;;;;;;;12.77;79.78;99755.75;5111208;28;20042;-79
2024/02/22 02:21:17;;;;;;;0.15;0.15;;;;;;;12.76;79.50;99759.34;5112524;28;20050;-79
2024/02/22 02:24:23;;;;;;;0.20;0.20;;;;;;;12.76;79.70;99759.34;5115041;28;20028;-79
2024/02/22 02:26:49;;;;;;;1.17;1.17;;;;;;;12.60;79.94;99756.53;5112017;28;20031;-78
2024/02/22 02:29:15;;;;;;;0.10;0.10;;;;;;;12.77;79.59;99756.63;5111930;28;20474;-77
2024/02/22 02:31:42;;;;;;;0.10;0.10;;;;;;;12.77;79.17;99758.41;5110564;28;20032;-78
2024/02/22 02:34:08;;;;;;;0.88;0.70;;;;;;;12.78;79.08;99744.19;5107382;28;20023;-78
2024/02/22 02:36:34;;;;;;;4.63;2.60;;;;;;;12.69;79.18;99744.63;5108788;27;20027;-78
2024/02/22 02:39:00;;;;;;;0.10;0.10;;;;;;;12.67;78.68;99744.69;5112935;28;20442;-78
2024/02/22 02:41:27;;;;;;;0.95;0.95;;;;;;;12.69;78.75;99740.16;5110721;28;20062;-78
2024/02/22 02:43:53;;;;;;;0.10;0.10;;;;;;;12.64;78.88;99746.66;5110583;28;20020;-78
2024/02/22 02:46:20;;;;;;;0.10;0.10;;;;;;;12.68;78.92;99737.59;5107125;28;20119;-79
2024/02/22 02:48:46;;;;;;;1.80;1.70;;;;;;;12.60;78.30;99741.44;5110384;28;20027;-79
2024/02/22 02:51:12;;;;;;;0.10;0.10;;;;;;;12.53;78.96;99732.03;5109504;28;20024;-78
2024/02/22 02:53:38;;;;;;;0.20;0.20;;;;;;;12.55;78.59;99732.84;5111062;28;20495;-77
2024/02/22 02:56:05;;;;;;;0.20;0.20;;;;;;;12.57;78.37;99719.47;5110006;28;20024;-77
2024/02/22 02:58:31;;;;;;;0.57;0.57;;;;;;;12.51;78.80;99731.25;5111954;28;20482;-77
2024/02/22 03:00:57;;;;;;;0.10;0.10;;;;;;;12.55;78.36;99719.56;5110855;28;20034;-77
2024/02/22 03:03:23;;;;;;;0.10;0.10;;;;;;;12.56;78.39;99721.28;5110148;28;20031;-77
2024/02/22 03:05:49;;;;;;;0.20;0.20;;;;;;;12.42;78.48;99721.03;5111458;28;20038;-78
2024/02/22 03:08:16;;;;;;;0.52;0.52;;;;;;;12.49;78.62;99716.31;5109225;28;20502;-78
2024/02/22 03:10:42;;;;;;;1.42;1.42;;;;;;;12.42;78.89;99705.09;5111335;28;20023;-78
2024/02/22 03:13:08;;;;;;;0.20;0.20;;;;;;;12.48;78.89;99699.50;5111010;28;20051;-77
2024/02/22 03:15:36;;;;;;;0.30;0.30;;;;;;;12.49;78.50;99703.91;5110605;28;20376;-77
2024/02/22 03:18:04;;;;;;;0.82;0.82;;;;;;;12.44;78.18;99704.09;5112322;28;20027;-77
2024/02/22 03:20:30;;;;;;;3.40;2.83;;;;;;;12.39;78.61;99691.97;5109129;28;20053;-78
2024/02/22 03:22:56;;;;;;;0.45;0.45;;;;;;;12.46;78.73;99688.06;5108580;27;20070;-77
2024/02/22 03:25:22;;;;;;;0.52;0.52;;;;;;;12.45;78.69;99689.03;5123520;27;20055;-77
2024/02/22 03:27:49;;;;;;;2.85;2.75;;;;;;;12.52;78.25;99687.78;5111605;28;20019;-77
2024/02/22 03:30:16;;;;;;;0.10;0.10;;;;;;;12.45;78.17;99684.56;5109426;28;20114;-78
2024/02/22 03:32:43;;;;;;;0.10;0.10;;;;;;;12.46;77.95;99688.97;5110380;28;20440;-78
2024/02/22 03:35:10;;;;;;;0.10;0.10;;;;;;;12.42;77.85;99683.84;5110252;28;20030;-78
2024/02/22 03:37:36;;;;;;;0.10;0.10;;;;;;;12.50;77.75;99679.06;5116156;28;20023;-79
2024/02/22 03:40:03;;;;;;;0.20;0.20;;;;;;;12.49;78.11;99684.44;5115572;28;20027;-78
2024/02/22 03:42:29;;;;;;;0.38;0.38;;;;;;;12.49;77.54;99682.63;5115135;28;20505;-79
2024/02/22 03:44:55;;;;;;;1.05;1.05;;;;;;;12.53;77.54;99670.91;5116143;28;20085;-79
2024/02/22 03:47:22;;;;;;;0.40;0.40;;;;;;;12.53;78.04;99665.59;5116351;28;20068;-79
2024/02/22 03:49:48;;;;;;;0.10;0.10;;;;;;;12.53;77.84;99660.28;5117537;28;20110;-79
2024/02/22 03:52:14;;;;;;;0.10;0.10;;;;;;;12.53;77.72;99664.75;5116612;27;20027;-79
2024/02/22 03:54:41;;;;;;;0.10;0.10;;;;;;;12.52;78.07;99652.41;5116239;28;20035;-79
2024/02/22 03:57:08;;;;;;;0.85;0.85;;;;;;;12.42;77.54;99646.66;5117789;28;20058;-79
2024/02/22 03:59:34;;;;;;;0.80;0.80;;;;;;;12.42;77.92;99651.97;5116865;28;20062;-79
2024/02/22 04:02:01;;;;;;;0.10;0.10;;;;;;;12.42;77.37;99642.22;5115586;28;20062;-79
2024/02/22 04:04:28;;;;;;;1.48;1.48;;;;;;;12.36;77.19;99642.50;5113171;28;20028;-79
2024/02/22 04:06:56;;;;;;;0.15;0.15;;;;;;;12.40;77.18;99637.88;5115606;28;20093;-78
2024/02/22 04:09:22;;;;;;;0.00;0.00;;;;;;;12.40;77.21;99636.13;5114038;28;20103;-79
2024/02/22 04:11:48;;;;;;;0.10;0.10;;;;;;;12.45;76.92;99633.25;5113568;28;20027;-78
2024/02/22 04:14:15;;;;;;;1.17;1.17;;;;;;;12.46;77.27;99627.84;5114317;27;20055;-79
2024/02/22 04:16:41;;;;;;;0.10;0.10;;;;;;;12.27;77.08;99627.88;5112192;28;20398;-78
2024/02/22 04:19:07;;;;;;;0.10;0.10;;;;;;;12.34;77.14;99606.34;5110543;28;20031;-77
2024/02/22 04:21:38;;;;;;;0.10;0.10;;;;;;;12.30;76.79;99605.63;5116365;28;20027;-78
2024/02/22 04:24:05;;;;;;;0.20;0.20;;;;;;;12.35;76.30;99608.03;5115802;28;20024;-78
2024/02/22 04:26:31;;;;;;;0.22;0.22;;;;;;;12.25;76.85;99608.47;5114513;28;20023;-78
2024/02/22 04:28:57;;;;;;;0.10;0.10;;;;;;;12.26;76.55;99610.22;5112919;28;20036;-77
2024/02/22 04:31:23;;;;;;;0.90;0.90;;;;;;;12.27;76.90;99603.97;5114226;28;20027;-78
2024/02/22 04:33:49;;;;;;;0.10;0.10;;;;;;;12.40;76.57;99598.03;5113061;28;20024;-78
2024/02/22 04:36:15;;;;;;;0.20;0.20;;;;;;;12.36;76.80;99596.47;5114322;28;20031;-78
2024/02/22 04:38:42;;;;;;;0.10;0.10;;;;;;;12.25;76.57;99605.81;5112517;28;20028;-78
2024/02/22 04:41:08;;;;;;;0.95;0.95;;;;;;;12.27;76.91;99606.63;5113625;28;20023;-77
2024/02/22 04:43:34;;;;;;;5.57;2.67;;;;;;;12.20;77.13;99591.91;5112116;28;20074;-77
2024/02/22 04:46:00;;;;;;;6.50;1.33;;;;;;;12.21;76.87;99596.28;5110702;28;20028;-77
2024/02/22 04:48:26;;;;;;;0.75;0.75;;;;;;;12.24;76.40;99600.59;5111143;28;20020;-77
2024/02/22 04:50:53;;;;;;;0.20;0.20;;;;;;;12.15;76.26;99607.19;5110897;27;20482;-78
2024/02/22 04:53:20;;;;;;;1.13;1.10;;;;;;;12.08;76.55;99595.13;5113264;28;20042;-78
2024/02/22 04:55:46;;;;;;;17.90;1.55;;;;;;;12.09;76.33;99597.72;5113706;28;20501;-77
2024/02/22 04:58:12;;;;;;;0.10;0.10;;;;;;;11.92;75.89;99590.47;5112337;28;20060;-78
2024/02/22 05:00:40;;;;;;;0.88;0.80;;;;;;;11.88;75.92;99594.22;5111416;28;20035;-78
2024/02/22 05:03:06;;;;;;;0.35;0.35;;;;;;;11.87;76.14;99587.16;5115051;28;20343;-78
2024/02/22 05:05:32;;;;;;;0.15;0.15;;;;;;;11.82;75.82;99581.22;5115416;28;20032;-78
2024/02/22 05:07:59;;;;;;;0.43;0.43;;;;;;;11.70;76.17;99573.81;5114414;27;20023;-78
2024/02/22 05:10:25;;;;;;;0.17;0.17;;;;;;;11.69;75.84;99570.31;5113812;28;20034;-77
2024/02/22 05:12:51;;;;;;;0.15;0.15;;;;;;;11.67;76.04;99566.84;5113918;28;20096;-78
2024/02/22 05:15:18;;;;;;;0.10;0.10;;;;;;;11.61;76.17;99565.34;5113333;27;20031;-77
2024/02/22 05:17:44;;;;;;;0.10;0.10;;;;;;;11.56;76.27;99556.72;5113679;28;20398;-78
2024/02/22 05:20:10;;;;;;;0.10;0.10;;;;;;;11.47;75.86;99550.03;5114146;28;20048;-77
2024/02/22 05:22:36;;;;;;;0.10;0.10;;;;;;;11.46;76.63;99547.44;5114326;28;20024;-78
2024/02/22 05:25:03;;;;;;;0.10;0.10;;;;;;;11.43;76.32;99551.09;5114630;28;20016;-77
2024/02/22 05:27:29;;;;;;;5.07;2.30;;;;;;;11.45;75.96;99548.38;5113302;28;20402;-77
2024/02/22 05:29:55;;;;;;;0.35;0.35;;;;;;;11.39;76.95;99553.94;5110336;28;20486;-77
2024/02/22 05:32:21;;;;;;;0.15;0.15;;;;;;;11.30;76.29;99561.41;5112866;28;20027;-77
2024/02/22 05:34:48;;;;;;;1.13;1.05;;;;;;;11.32;76.45;99551.56;5112549;28;20027;-78
2024/02/22 05:37:14;;;;;;;0.20;0.20;;;;;;;11.33;76.85;99545.34;5117033;28;20023;-79
2024/02/22 05:39:40;;;;;;;0.10;0.10;;;;;;;11.38;77.23;99549.59;5116847;28;20036;-78
2024/02/22 05:42:06;;;;;;;0.10;0.10;;;;;;;11.44;77.10;99552.84;5116008;27;20019;-78
2024/02/22 05:44:33;;;;;;;0.50;0.50;;;;;;;11.47;77.08;99541.22;5112743;28;20523;-77
2024/02/22 05:46:59;;;;;;;0.20;0.20;;;;;;;11.45;77.50;99543.94;5112024;28;20023;-78
2024/02/22 05:49:25;;;;;;;0.22;0.22;;;;;;;11.52;76.43;99533.91;5112711;28;20046;-78
2024/02/22 05:51:51;;;;;;;0.10;0.10;;;;;;;11.58;76.40;99520.38;5113715;28;20027;-78
2024/02/22 05:54:17;;;;;;;0.15;0.15;;;;;;;11.59;77.07;99519.44;5114357;28;20043;-78
2024/02/22 05:56:43;;;;;;;0.10;0.10;;;;;;;11.61;76.64;99512.28;5115181;28;20035;-78
2024/02/22 05:59:10;;;;;;;0.30;0.30;;;;;;;11.53;76.97;99518.88;5109289;28;20057;-78
2024/02/22 06:01:36;;;;;;;0.22;0.22;;;;;;;11.60;77.09;99521.19;5110617;28;20118;-78
2024/02/22 06:04:03;;;;;;;0.10;0.10;;;;;;;11.63;76.42;99501.59;5112982;28;20023;-78
2024/02/22 06:06:29;;;;;;;0.10;0.10;;;;;;;11.66;77.04;99506.75;5113800;28;20020;-78
2024/02/22 06:08:55;;;;;;;3.08;2.85;;;;;;;11.69;76.83;99508.41;5113986;28;20027;-78
2024/02/22 06:11:21;;;;;;;0.10;0.10;;;;;;;11.65;76.79;99497.94;5110917;28;20447;-79
2024/02/22 06:13:47;;;;;;;0.80;0.80;;;;;;;11.70;76.81;99491.56;5114202;28;20620;-78
2024/02/22 06:16:15;;;;;;;0.10;0.10;;;;;;;11.72;76.32;99481.75;5112630;28;20061;-78
2024/02/22 06:18:41;;;;;;;0.10;0.10;;;;;;;11.69;76.45;99474.78;5112556;28;20070;-78
2024/02/22 06:21:08;;;;;;;0.10;0.10;;;;;;;11.64;76.18;99468.84;5113569;27;20036;-77
2024/02/22 06:23:34;;;;;;;0.20;0.20;;;;;;;11.58;76.46;99463.81;5115300;28;20039;-77
2024/02/22 06:26:01;;;;;;;0.13;0.13;;;;;;;11.52;76.26;99464.94;5112929;28;20023;-78
2024/02/22 06:28:27;;;;;;;0.20;0.20;;;;;;;11.50;75.74;99456.19;5111993;28;20087;-78
2024/02/22 06:30:53;;;;;;;0.10;0.10;;;;;;;11.51;75.75;99451.75;5114041;28;20039;-78
2024/02/22 06:33:21;;;;;;;0.10;0.10;;;;;;;11.54;75.93;99451.59;5114202;28;20020;-79
2024/02/22 06:35:48;;;;;;;0.10;0.10;;;;;;;11.52;76.08;99434.94;5113258;28;20049;-78
2024/02/22 06:38:14;;;;;;;0.10;0.10;;;;;;;11.51;75.71;99438.50;5112927;28;20032;-78
2024/02/22 06:40:48;;;;;;;0.10;0.10;;;;;;;11.60;75.88;99436.28;5113243;28;20062;-78
2024/02/22 06:43:15;;;;;;;0.10;0.10;;;;;;;11.46;76.03;99433.41;5113901;28;20024;-78
2024/02/22 06:45:42;;;;;;;0.10;0.10;;;;;;;11.48;76.30;99421.78;5109567;28;20038;-77
2024/02/22 06:48:09;;;;;;;1.00;1.00;;;;;;;11.40;76.19;99417.78;5108839;28;20494;-78
2024/02/22 06:50:35;;;;;;;0.10;0.10;;;;;;;11.41;76.14;99415.03;5110714;28;20031;-77
2024/02/22 06:53:02;;;;;;;0.10;0.10;;;;;;;11.32;76.95;99408.38;5112757;28;20054;-77
2024/02/22 06:55:31;;;;;;;0.10;0.10;;;;;;;11.35;76.52;99398.56;5112618;28;20386;-78
2024/02/22 06:57:57;;;;;;;0.10;0.10;;;;;;;11.39;76.72;99394.84;5111528;28;20535;-79
2024/02/22 07:00:24;;;;;;;0.10;0.10;;;;;;;11.44;76.70;99376.91;5113715;28;20020;-78
2024/02/22 07:02:50;;;;;;;0.10;0.10;;;;;;;11.43;77.09;99377.88;5113704;28;20019;-78
2024/02/22 07:05:16;;;;;;;0.10;0.10;;;;;;;11.45;76.47;99373.34;5113530;28;20024;-78
2024/02/22 07:07:42;;;;;;;0.98;0.98;;;;;;;11.46;76.75;99377.72;5112784;28;20019;-78
2024/02/22 07:10:13;;;;;;;0.10;0.10;;;;;;;11.48;76.52;99383.81;5112843;28;20089;-78
2024/02/22 07:12:44;;;;;;;0.73;0.73;;;;;;;11.52;76.78;99384.53;5113922;28;20030;-79
2024/02/22 07:15:11;;;;;;;0.60;0.60;;;;;;;11.56;76.83;99386.94;5115225;28;20059;-79
2024/02/22 07:17:37;;;;;;;0.10;0.10;;;;;;;11.55;77.19;99379.94;5116252;27;20439;-78
2024/02/22 07:20:04;;;;;;;0.20;0.20;;;;;;;11.60;77.19;99380.56;5116044;28;20077;-78
2024/02/22 07:22:31;;;;;;;1.52;1.45;;;;;;;11.53;76.90;99386.25;5116540;27;20073;-79
2024/02/22 07:24:58;;;;;;;0.10;0.10;;;;;;;11.63;76.72;99361.84;5112536;28;20415;-78
2024/02/22 07:27:25;;;;;;;0.20;0.20;;;;;;;11.65;77.12;99360.00;5113414;28;20049;-79
2024/02/22 07:29:51;;;;;;;0.10;0.10;;;;;;;11.67;76.73;99354.59;5109541;27;20020;-78
2024/02/22 07:32:17;;;;;;;0.65;0.65;;;;;;;11.70;76.57;99345.63;5116641;28;20683;-78
2024/02/22 07:34:43;;;;;;;0.17;0.17;;;;;;;11.65;77.30;99341.41;5106417;27;20625;-79
2024/02/22 07:37:11;;;;;;;0.35;0.28;;;;;;;11.71;76.94;99331.44;5107640;28;20257;-79
2024/02/22 07:39:38;;;;;;;0.10;0.10;;;;;;;11.76;77.08;99326.75;5116036;27;20076;-78
2024/02/22 07:42:04;;;;;;;0.20;0.20;;;;;;;11.78;77.04;99332.84;5117934;28;20023;-78
2024/02/22 07:44:30;;;;;;;0.10;0.10;;;;;;;11.84;76.64;99334.34;5110050;28;20023;-79
2024/02/22 07:46:57;;;;;;;0.20;0.20;;;;;;;11.89;77.37;99322.56;5118941;28;20493;-77
2024/02/22 07:49:23;;;;;;;0.20;0.20;;;;;;;11.90;77.38;99316.34;5117902;28;20020;-78
2024/02/22 07:51:49;;;;;;;0.32;0.32;;;;;;;11.85;77.59;99314.84;5118344;28;20553;-78
2024/02/22 07:54:16;;;;;;;0.25;0.25;;;;;;;11.93;77.07;99294.09;5118151;28;20032;-79
2024/02/22 07:56:42;;;;;;;0.10;0.10;;;;;;;11.95;77.17;99290.41;5116627;28;20027;-77
2024/02/22 07:59:11;;;;;;;0.10;0.10;;;;;;;11.93;77.73;99292.28;5115567;28;20444;-77
2024/02/22 08:01:40;;;;;;;0.20;0.20;;;;;;;11.98;77.34;99282.31;5115660;28;20039;-80
2024/02/22 08:04:07;;;;;;;0.10;0.10;;;;;;;11.95;77.22;99279.78;5110186;28;20518;-78
2024/02/22 08:06:33;;;;;;;0.50;0.50;;;;;;;11.97;76.80;99277.97;5115657;28;20031;-79
2024/02/22 08:09:00;;;;;;;6.82;2.80;;;;;;;12.03;76.93;99265.31;5108152;27;20050;-78
2024/02/22 08:11:27;;;;;;;0.55;0.52;;;;;;;12.00;76.96;99258.38;5117686;28;20399;-80
2024/02/22 08:13:53;;;;;;;0.10;0.10;;;;;;;12.06;76.55;99251.88;5117951;28;20471;-79
2024/02/22 08:16:19;;;;;;;0.20;0.20;;;;;;;12.09;76.90;99251.72;5114684;28;20088;-80
2024/02/22 08:18:46;;;;;;;1.08;1.02;;;;;;;12.13;76.50;99263.88;5116918;28;20036;-79
2024/02/22 08:21:12;;;;;;;0.10;0.10;;;;;;;12.15;76.82;99254.06;5118954;28;20050;-79
2024/02/22 08:23:38;;;;;;;0.28;0.28;;;;;;;12.18;76.17;99239.75;5117073;28;20024;-81
2024/02/22 08:26:04;;;;;;;0.15;0.15;;;;;;;12.16;76.40;99234.50;5114226;28;20087;-80
2024/02/22 08:28:32;;;;;;;0.68;0.68;;;;;;;12.22;76.24;99236.84;5116241;27;20034;-80
2024/02/22 08:30:58;;;;;;;0.10;0.10;;;;;;;12.21;76.15;99205.94;5115660;28;20032;-81
2024/02/22 08:33:26;;;;;;;0.30;0.30;;;;;;;12.21;76.08;99187.38;5120763;28;20045;-80
2024/02/22 08:35:54;;;;;;;0.35;0.32;;;;;;;12.27;75.98;99192.34;5122508;28;20032;-79
2024/02/22 08:38:21;;;;;;;0.10;0.10;;;;;;;12.24;76.23;99197.81;5135199;27;20028;-79
2024/02/22 08:40:47;;;;;;;0.57;0.57;;;;;;;12.26;75.99;99190.63;5135450;28;20118;-79
2024/02/22 08:43:14;;;;;;;0.10;0.10;;;;;;;12.31;76.43;99182.38;5110445;27;20042;-78
2024/02/22 08:45:41;;;;;;;0.10;0.10;;;;;;;12.28;75.47;99177.25;5117368;28;20031;-79
2024/02/22 08:48:07;;;;;;;0.10;0.10;;;;;;;12.38;75.77;99173.16;5113202;28;20031;-79
2024/02/22 08:50:33;;;;;;;0.10;0.10;;;;;;;12.38;76.15;99165.19;5112218;28;20107;-79
2024/02/22 08:53:00;;;;;;;0.20;0.20;;;;;;;12.42;75.64;99168.53;5113454;28;20051;-79
2024/02/22 08:55:26;;;;;;;0.25;0.25;;;;;;;12.46;75.68;99164.75;5117928;28;20027;-79
2024/02/22 08:57:52;;;;;;;0.10;0.10;;;;;;;12.39;75.77;99158.09;5119650;28;20482;-79
2024/02/22 09:00:19;;;;;;;0.10;0.10;;;;;;;12.51;76.12;99148.59;5118879;28;20038;-79
2024/02/22 09:02:46;;;;;;;0.32;0.32;;;;;;;12.52;75.35;99143.19;5120854;28;20103;-79
2024/02/22 09:05:12;;;;;;;2.20;2.05;;;;;;;12.52;76.02;99137.84;5120724;28;20087;-79
2024/02/22 09:07:38;;;;;;;0.13;0.13;;;;;;;12.49;75.90;99129.22;5118375;28;20035;-79
2024/02/22 09:10:06;;;;;;;0.68;0.68;;;;;;;12.51;75.49;99114.91;5105894;28;20027;-78
2024/02/22 09:12:33;;;;;;;0.10;0.10;;;;;;;12.55;75.80;99111.13;5115470;27;21824;-78
2024/02/22 09:14:59;;;;;;;0.17;0.17;;;;;;;12.53;75.40;99097.06;5110203;28;20020;-78
2024/02/22 09:17:26;;;;;;;1.73;1.65;;;;;;;12.51;75.07;99093.66;5112678;28;20779;-78
2024/02/22 09:19:52;;;;;;;0.90;0.63;;;;;;;12.44;75.25;99082.50;5113569;28;20038;-78
2024/02/22 09:22:20;;;;;;;1.08;0.65;;;;;;;12.50;74.71;99070.69;5113037;28;20050;-78
2024/02/22 09:24:46;;;;;;;0.17;0.17;;;;;;;12.56;75.13;99062.38;5112956;28;20486;-78
2024/02/22 09:27:14;;;;;;;0.10;0.10;;;;;;;12.61;74.74;99051.47;5112371;27;20055;-78
2024/02/22 09:29:42;;;;;;;0.10;0.10;;;;;;;12.71;75.26;99052.69;5113949;28;20031;-78
2024/02/22 09:32:09;;;;;;;0.20;0.20;;;;;;;12.70;74.54;99060.75;5103169;28;20024;-78
2024/02/22 09:34:37;;;;;;;0.10;0.10;;;;;;;12.76;74.58;99058.56;5110089;28;20115;-78
2024/02/22 09:37:04;;;;;;;0.10;0.10;;;;;;;12.85;74.53;99054.53;5109067;28;20490;-78
2024/02/22 09:39:30;;;;;;;0.10;0.10;;;;;;;12.87;74.39;99036.69;5107865;28;20094;-78
2024/02/22 09:41:57;;;;;;;0.20;0.20;;;;;;;12.99;74.50;99027.13;5108599;28;20050;-78
2024/02/22 09:44:24;;;;;;;0.10;0.10;;;;;;;13.08;74.52;99023.94;5108429;28;20391;-77
2024/02/22 09:46:53;;;;;;;0.30;0.30;;;;;;;13.00;73.05;99015.56;5129826;27;20032;-77
2024/02/22 09:49:21;;;;;;;0.17;0.17;;;;;;;13.06;72.84;99015.19;5112390;28;20028;-78
2024/02/22 09:51:51;;;;;;;5.38;1.10;;;;;;;13.01;72.38;99022.59;5108121;28;20052;-78
2024/02/22 09:54:18;;;;;;;0.20;0.20;;;;;;;12.92;72.86;99021.34;5106778;28;20039;-78
2024/02/22 09:56:46;;;;;;;0.30;0.30;;;;;;;12.88;72.63;99008.31;5103526;27;20099;-78
2024/02/22 09:59:13;;;;;;;0.20;0.20;;;;;;;13.01;72.82;98990.69;5109650;27;20575;-78
2024/02/22 10:01:40;;;;;;;0.20;0.20;;;;;;;13.08;73.05;98986.72;5106676;27;20039;-78
2024/02/22 10:04:19;;;;;;;0.10;0.10;;;;;;;13.22;73.56;98975.25;5104858;27;20102;-78
2024/02/22 10:06:47;;;;;;;0.10;0.10;;;;;;;13.13;72.94;98962.50;5111358;27;20440;-79
2024/02/22 10:09:14;;;;;;;0.15;0.15;;;;;;;13.16;72.26;98957.00;5113936;27;20031;-79
2024/02/22 10:11:45;;;;;;;0.10;0.10;;;;;;;13.16;72.75;98949.03;5115814;28;20069;-77
2024/02/22 10:14:13;;;;;;;0.22;0.22;;;;;;;13.25;72.17;98951.09;5115428;28;20110;-78
2024/02/22 10:16:41;;;;;;;0.10;0.10;;;;;;;13.30;72.05;98937.53;5115431;27;20039;-78
2024/02/22 10:19:13;;;;;;;0.10;0.10;;;;;;;13.24;71.92;98933.44;5110721;28;20057;-78
2024/02/22 10:21:39;;;;;;;1.98;1.85;;;;;;;13.33;71.92;98928.50;5113396;28;20028;-78
2024/02/22 10:24:06;;;;;;;0.10;0.10;;;;;;;13.24;72.01;98917.47;5106084;28;20039;-78
2024/02/22 10:26:32;;;;;;;0.10;0.10;;;;;;;13.29;72.13;98900.41;5113658;28;20027;-78
2024/02/22 10:29:08;;;;;;;0.10;0.10;;;;;;;13.32;72.38;98897.53;5115972;28;20034;-78
2024/02/22 10:31:49;;;;;;;0.10;0.10;;;;;;;13.43;72.16;98881.78;5116379;28;20028;-78
2024/02/22 10:34:15;;;;;;;0.03;0.03;;;;;;;13.47;72.46;98896.63;5109075;28;20017;-78
2024/02/22 10:36:42;;;;;;;0.10;0.10;;;;;;;13.50;72.20;98891.09;5116423;28;20102;-78
2024/02/22 10:39:11;;;;;;;0.28;0.28;;;;;;;13.52;72.31;98881.22;5116384;28;20047;-79
2024/02/22 10:41:37;;;;;;;0.10;0.10;;;;;;;13.51;72.72;98866.19;5117581;28;20024;-79
2024/02/22 10:44:04;;;;;;;0.15;0.15;;;;;;;13.59;72.43;98861.25;5117478;28;20501;-80
2024/02/22 10:46:36;;;;;;;0.10;0.10;;;;;;;13.67;72.78;98850.09;5108753;28;20039;-79
2024/02/22 10:49:11;;;;;;;0.20;0.20;;;;;;;13.73;72.45;98835.53;5111670;28;20059;-78
2024/02/22 10:51:39;;;;;;;0.17;0.17;;;;;;;13.73;72.43;98839.06;5112191;28;20089;-78
2024/02/22 10:54:10;;;;;;;0.75;0.75;;;;;;;13.84;72.55;98833.00;5114524;28;20027;-78
2024/02/22 10:56:43;;;;;;;0.00;0.00;;;;;;;13.88;72.29;98829.22;5113964;28;20056;-79
2024/02/22 10:59:13;;;;;;;0.10;0.10;;;;;;;13.85;72.22;98829.41;5114765;28;20024;-78
2024/02/22 11:01:41;;;;;;;0.10;0.10;;;;;;;13.88;72.13;98821.22;5112967;28;20023;-79
2024/02/22 11:04:09;;;;;;;0.10;0.10;;;;;;;13.93;72.11;98825.38;5114946;28;20023;-79
2024/02/22 11:06:39;;;;;;;0.30;0.30;;;;;;;13.91;72.08;98807.69;5111387;28;20055;-79
2024/02/22 11:09:17;;;;;;;0.10;0.10;;;;;;;14.00;72.06;98800.06;5113827;28;20028;-79
2024/02/22 11:11:45;;;;;;;0.10;0.10;;;;;;;14.03;71.90;98786.53;5113741;28;20024;-78
2024/02/22 11:14:13;;;;;;;0.52;0.52;;;;;;;14.05;72.17;98773.97;5109927;28;20073;-79
2024/02/22 11:16:41;;;;;;;0.10;0.10;;;;;;;14.01;72.13;98745.88;5110977;28;20031;-78
2024/02/22 11:19:12;;;;;;;0.10;0.10;;;;;;;14.08;72.12;98734.69;5114718;28;20407;-79
2024/02/22 11:21:39;;;;;;;0.10;0.10;;;;;;;14.15;72.57;98732.44;5114886;28;20760;-78
2024/02/22 11:24:08;;;;;;;0.10;0.10;;;;;;;14.27;72.51;98719.25;5116452;28;20039;-79
2024/02/22 11:26:34;;;;;;;0.10;0.10;;;;;;;14.30;72.30;98695.06;5111009;28;20167;-78
2024/02/22 11:29:01;;;;;;;0.28;0.28;;;;;;;14.38;72.03;98684.72;5105916;28;20545;-77
2024/02/22 11:31:27;;;;;;;0.17;0.17;;;;;;;14.46;71.74;98665.53;5110656;28;20038;-77
2024/02/22 11:33:56;;;;;;;0.57;0.57;;;;;;;14.41;71.47;98655.19;5114942;28;20126;-79